createdAt,value
2022-10-02T00:02:35.352Z,52.00
2022-10-02T00:05:33.569Z,52.00
2022-10-02T00:08:33.175Z,52.00
2022-10-02T00:11:31.330Z,52.00
2022-10-02T00:14:27.462Z,52.00
2022-10-02T00:17:24.591Z,52.00
2022-10-02T00:20:21.774Z,52.00
2022-10-02T00:23:22.333Z,52.00
2022-10-02T00:26:20.139Z,52.00
2022-10-02T00:29:28.728Z,52.00
2022-10-02T00:32:30.079Z,52.00
2022-10-02T00:35:49.706Z,52.10
2022-10-02T00:38:53.942Z,52.00
2022-10-02T00:42:25.196Z,52.00
2022-10-02T00:45:45.926Z,52.00
2022-10-02T00:49:00.344Z,52.00
2022-10-02T00:52:05.304Z,52.00
2022-10-02T00:55:12.673Z,52.00
2022-10-02T00:58:23.040Z,52.00
2022-10-02T01:01:20.564Z,52.00
2022-10-02T01:04:19.277Z,52.00
2022-10-02T01:07:15.170Z,52.10
2022-10-02T01:10:10.221Z,52.00
2022-10-02T01:13:03.162Z,52.00
2022-10-02T01:16:00.353Z,52.00
2022-10-02T01:18:53.318Z,52.10
2022-10-02T01:21:50.277Z,52.00
2022-10-02T01:24:52.216Z,52.00
2022-10-02T01:27:46.497Z,52.10
2022-10-02T01:30:43.152Z,52.10
2022-10-02T01:33:38.203Z,52.00
2022-10-02T01:36:32.032Z,52.10
2022-10-02T01:39:26.419Z,52.10
2022-10-02T01:42:22.034Z,52.10
2022-10-02T01:45:15.323Z,52.10
2022-10-02T01:48:16.530Z,52.10
2022-10-02T01:51:27.157Z,52.10
2022-10-02T01:54:33.510Z,52.10
2022-10-02T01:57:36.418Z,52.10
2022-10-02T02:00:44.416Z,52.10
2022-10-02T02:03:45.509Z,52.10
2022-10-02T02:06:50.687Z,52.10
2022-10-02T02:09:49.544Z,52.20
2022-10-02T02:12:46.742Z,52.10
2022-10-02T02:15:48.004Z,52.10
2022-10-02T02:18:47.382Z,52.00
2022-10-02T02:21:43.126Z,52.10
2022-10-02T02:24:41.121Z,52.10
2022-10-02T02:27:39.067Z,52.10
2022-10-02T02:30:36.569Z,52.80
2022-10-02T02:33:34.391Z,52.10
2022-10-02T02:36:33.950Z,52.10
2022-10-02T02:39:31.848Z,52.10
2022-10-02T02:42:31.484Z,52.10
2022-10-02T02:45:28.340Z,52.10
2022-10-02T02:48:26.826Z,52.10
2022-10-02T02:51:23.421Z,52.20
2022-10-02T02:54:21.115Z,52.10
2022-10-02T02:57:17.405Z,52.20
2022-10-02T03:00:12.920Z,52.20
2022-10-02T03:03:07.224Z,52.20
2022-10-02T03:06:07.661Z,52.20
2022-10-02T03:09:01.988Z,52.20
2022-10-02T03:12:03.576Z,52.10
2022-10-02T03:15:12.524Z,52.20
2022-10-02T03:18:31.560Z,52.20
2022-10-02T03:21:32.616Z,52.10
2022-10-02T03:24:32.074Z,52.20
2022-10-02T03:27:34.654Z,52.10
2022-10-02T03:30:29.289Z,52.20
2022-10-02T03:33:24.217Z,52.70
2022-10-02T03:36:20.519Z,52.20
2022-10-02T03:39:30.464Z,52.20
2022-10-02T03:42:26.399Z,52.70
2022-10-02T03:45:39.018Z,52.20
2022-10-02T03:48:32.605Z,52.90
2022-10-02T03:51:26.318Z,52.20
2022-10-02T03:54:22.267Z,52.20
2022-10-02T03:57:21.379Z,52.20
2022-10-02T04:00:20.548Z,52.20
2022-10-02T04:03:17.294Z,52.30
2022-10-02T04:06:15.568Z,52.20
2022-10-02T04:09:13.702Z,52.20
2022-10-02T04:12:12.930Z,52.20
2022-10-02T04:15:15.802Z,52.10
2022-10-02T04:18:12.527Z,52.10
2022-10-02T04:21:14.058Z,52.20
2022-10-02T04:24:15.089Z,52.20
2022-10-02T04:27:16.833Z,52.90
2022-10-02T04:30:13.299Z,52.20
2022-10-02T04:33:13.589Z,52.20
2022-10-02T04:36:19.670Z,52.20
2022-10-02T04:39:28.192Z,52.30
2022-10-02T04:42:37.671Z,52.20
2022-10-02T04:45:49.094Z,52.20
2022-10-02T04:48:55.492Z,52.30
2022-10-02T04:52:05.776Z,52.30
2022-10-02T04:55:25.793Z,52.20
2022-10-02T04:58:31.005Z,52.30
2022-10-02T05:01:35.422Z,52.30
2022-10-02T05:04:48.793Z,52.30
2022-10-02T05:08:04.811Z,52.30
2022-10-02T05:11:18.949Z,52.20
2022-10-02T05:14:35.828Z,52.20
2022-10-02T05:17:51.752Z,52.30
2022-10-02T05:21:03.663Z,52.30
2022-10-02T05:24:09.843Z,52.30
2022-10-02T05:27:13.641Z,52.30
2022-10-02T05:30:10.827Z,52.30
2022-10-02T05:33:23.363Z,52.30
2022-10-02T05:36:40.651Z,52.30
2022-10-02T05:39:37.369Z,52.30
2022-10-02T05:42:34.981Z,52.30
2022-10-02T05:45:35.968Z,52.30
2022-10-02T05:48:33.508Z,52.30
2022-10-02T05:51:36.982Z,52.30
2022-10-02T05:54:40.915Z,52.30
2022-10-02T05:57:41.512Z,52.30
2022-10-02T06:00:41.367Z,52.30
2022-10-02T06:03:40.985Z,52.30
2022-10-02T06:06:39.731Z,52.40
2022-10-02T06:09:36.379Z,52.30
2022-10-02T06:12:38.446Z,52.30
2022-10-02T06:15:40.923Z,52.30
2022-10-02T06:18:36.387Z,52.30
2022-10-02T06:21:37.425Z,52.40
2022-10-02T06:24:34.713Z,52.40
2022-10-02T06:27:34.357Z,52.40
2022-10-02T06:30:30.006Z,52.40
2022-10-02T06:33:28.052Z,52.40
2022-10-02T06:36:54.993Z,52.40
2022-10-02T06:40:04.112Z,52.30
2022-10-02T06:43:06.656Z,52.40
2022-10-02T06:46:10.413Z,52.50
2022-10-02T06:49:12.467Z,52.40
2022-10-02T06:52:16.388Z,52.40
2022-10-02T06:55:23.076Z,52.40
2022-10-02T06:58:32.105Z,53.10
2022-10-02T07:01:37.043Z,52.40
2022-10-02T07:04:43.719Z,52.50
2022-10-02T07:07:49.247Z,52.50
2022-10-02T07:10:48.964Z,52.40
2022-10-02T07:13:56.908Z,52.40
2022-10-02T07:17:02.301Z,52.40
2022-10-02T07:20:32.954Z,52.40
2022-10-02T07:23:39.274Z,52.50
2022-10-02T07:26:46.495Z,52.50
2022-10-02T07:29:49.294Z,52.50
2022-10-02T07:32:49.210Z,52.50
2022-10-02T07:35:49.449Z,52.60
2022-10-02T07:39:02.574Z,52.50
2022-10-02T07:42:12.854Z,52.50
2022-10-02T07:45:28.704Z,52.50
2022-10-02T07:48:36.157Z,52.60
2022-10-02T07:51:50.138Z,52.60
2022-10-02T07:55:11.622Z,52.60
2022-10-02T07:58:07.134Z,52.50
2022-10-02T08:01:02.396Z,52.60
2022-10-02T08:03:59.621Z,52.50
2022-10-02T08:06:59.756Z,52.60
2022-10-02T08:09:54.267Z,52.60
2022-10-02T08:12:55.872Z,52.60
2022-10-02T08:15:52.073Z,52.60
2022-10-02T08:18:49.650Z,52.60
2022-10-02T08:21:47.848Z,52.70
2022-10-02T08:24:45.834Z,52.60
2022-10-02T08:27:49.984Z,52.70
2022-10-02T08:30:42.744Z,52.70
2022-10-02T08:33:35.645Z,52.60
2022-10-02T08:37:00.070Z,52.70
2022-10-02T08:40:23.271Z,52.70
2022-10-02T08:44:04.696Z,52.80
2022-10-02T08:47:21.463Z,52.70
2022-10-02T08:50:52.187Z,52.80
2022-10-02T08:54:21.517Z,52.70
2022-10-02T08:57:40.108Z,52.70
2022-10-02T09:00:44.171Z,52.80
2022-10-02T09:04:21.907Z,52.80
2022-10-02T09:08:03.654Z,52.80
2022-10-02T09:11:27.643Z,53.40
2022-10-02T09:14:49.604Z,52.80
2022-10-02T09:17:49.061Z,52.90
2022-10-02T09:20:47.887Z,52.90
2022-10-02T09:24:22.040Z,52.90
2022-10-02T09:27:47.337Z,52.90
2022-10-02T09:31:09.365Z,52.90
2022-10-02T09:34:53.554Z,52.80
2022-10-02T09:38:21.175Z,53.00
2022-10-02T09:42:00.710Z,52.90
2022-10-02T09:45:36.263Z,52.90
2022-10-02T09:49:09.427Z,53.00
2022-10-02T09:52:42.557Z,53.00
2022-10-02T09:56:05.560Z,53.10
2022-10-02T09:59:32.248Z,53.00
2022-10-02T10:02:54.563Z,53.00
2022-10-02T10:06:06.207Z,53.00
2022-10-02T10:09:25.489Z,53.80
2022-10-02T10:12:41.465Z,53.00
2022-10-02T10:16:11.488Z,53.00
2022-10-02T10:19:39.407Z,53.00
2022-10-02T10:23:00.384Z,53.00
2022-10-02T10:26:22.839Z,53.10
2022-10-02T10:29:45.588Z,53.10
2022-10-02T10:33:09.175Z,53.20
2022-10-02T10:36:45.909Z,53.10
2022-10-02T10:40:15.676Z,53.20
2022-10-02T10:43:44.659Z,53.20
2022-10-02T10:46:47.249Z,53.20
2022-10-02T10:50:15.105Z,53.20
2022-10-02T10:53:33.712Z,53.20
2022-10-02T10:56:37.821Z,53.80
2022-10-02T10:59:54.025Z,53.20
2022-10-02T11:03:29.249Z,53.20
2022-10-02T11:06:51.303Z,53.20
2022-10-02T11:10:21.822Z,53.30
2022-10-02T11:13:28.539Z,53.30
2022-10-02T11:17:04.425Z,53.30
2022-10-02T11:20:22.901Z,53.30
2022-10-02T11:23:32.892Z,53.30
2022-10-02T11:26:58.660Z,53.20
2022-10-02T11:30:19.901Z,53.30
2022-10-02T11:33:48.855Z,53.30
2022-10-02T11:36:52.673Z,53.40
2022-10-02T11:40:35.720Z,53.40
2022-10-02T11:43:44.051Z,53.30
2022-10-02T11:47:04.906Z,53.40
2022-10-02T11:50:32.780Z,53.40
2022-10-02T11:53:38.572Z,53.40
2022-10-02T11:56:46.292Z,53.40
2022-10-02T12:00:09.919Z,53.50
2022-10-02T12:03:15.367Z,53.40
2022-10-02T12:06:17.547Z,53.40
2022-10-02T12:09:21.060Z,53.40
2022-10-02T12:12:28.023Z,53.40
2022-10-02T12:15:31.052Z,53.50
2022-10-02T12:18:36.940Z,53.40
2022-10-02T12:22:05.959Z,53.50
2022-10-02T12:25:30.077Z,53.50
2022-10-02T12:28:31.567Z,53.60
2022-10-02T12:31:34.762Z,53.50
2022-10-02T12:34:40.868Z,53.60
2022-10-02T12:37:39.676Z,53.50
2022-10-02T12:40:41.692Z,53.50
2022-10-02T12:44:17.083Z,53.50
2022-10-02T12:47:35.325Z,53.50
2022-10-02T12:50:50.468Z,53.50
2022-10-02T12:54:13.178Z,53.50
2022-10-02T12:57:53.167Z,53.60
2022-10-02T13:01:12.209Z,53.60
2022-10-02T13:04:39.108Z,53.70
2022-10-02T13:08:18.071Z,53.50
2022-10-02T13:11:19.713Z,53.70
2022-10-02T13:14:36.442Z,53.60
2022-10-02T13:17:36.997Z,53.60
2022-10-02T13:20:39.786Z,53.60
2022-10-02T13:23:42.924Z,53.60
2022-10-02T13:26:42.414Z,53.60
2022-10-02T13:29:47.896Z,53.60
2022-10-02T13:33:14.864Z,53.60
2022-10-02T13:36:20.137Z,53.60
2022-10-02T13:39:32.207Z,53.60
2022-10-02T13:42:38.027Z,53.70
2022-10-02T13:45:36.049Z,53.70
2022-10-02T13:48:39.474Z,53.70
2022-10-02T13:51:42.149Z,53.60
2022-10-02T13:54:53.035Z,53.70
2022-10-02T13:58:03.545Z,53.70
2022-10-02T14:01:07.567Z,53.70
2022-10-02T14:04:30.791Z,53.70
2022-10-02T14:07:38.480Z,53.70
2022-10-02T14:10:43.076Z,53.70
2022-10-02T14:13:55.124Z,53.80
2022-10-02T14:17:01.543Z,53.80
2022-10-02T14:20:18.981Z,53.60
2022-10-02T14:23:34.243Z,53.70
2022-10-02T14:26:39.198Z,53.70
2022-10-02T14:29:42.628Z,53.80
2022-10-02T14:32:49.777Z,53.70
2022-10-02T14:35:52.651Z,53.80
2022-10-02T14:38:55.071Z,53.70
2022-10-02T14:42:07.993Z,53.70
2022-10-02T14:45:25.841Z,53.70
2022-10-02T14:48:38.002Z,53.70
2022-10-02T14:51:51.744Z,53.70
2022-10-02T14:55:05.940Z,53.70
2022-10-02T14:58:26.740Z,53.70
2022-10-02T15:01:22.332Z,53.60
2022-10-02T15:04:29.417Z,53.80
2022-10-02T15:07:25.374Z,53.70
2022-10-02T15:10:23.112Z,53.80
2022-10-02T15:13:28.292Z,53.70
2022-10-02T15:16:43.791Z,53.70
2022-10-02T15:19:49.674Z,53.70
2022-10-02T15:22:48.382Z,53.80
2022-10-02T15:26:01.507Z,53.80
2022-10-02T15:29:07.524Z,53.80
2022-10-02T15:32:31.255Z,53.70
2022-10-02T15:35:32.045Z,53.80
2022-10-02T15:38:51.693Z,53.70
2022-10-02T15:41:50.492Z,53.70
2022-10-02T15:45:21.887Z,53.70
2022-10-02T15:48:43.905Z,53.70
2022-10-02T15:51:53.437Z,53.70
2022-10-02T15:54:57.533Z,53.70
2022-10-02T15:58:08.240Z,54.30
2022-10-02T16:01:14.509Z,54.70
2022-10-02T16:04:14.918Z,54.80
2022-10-02T16:07:40.731Z,54.80
2022-10-02T16:10:39.225Z,54.90
2022-10-02T16:13:47.368Z,54.90
2022-10-02T16:17:16.029Z,55.00
2022-10-02T16:20:20.851Z,55.10
2022-10-02T16:23:30.763Z,55.10
2022-10-02T16:26:59.998Z,55.10
2022-10-02T16:30:11.709Z,55.30
2022-10-02T16:33:20.720Z,55.30
2022-10-02T16:36:41.152Z,55.30
2022-10-02T16:39:53.177Z,55.40
2022-10-02T16:42:53.242Z,55.40
2022-10-02T16:46:03.432Z,55.50
2022-10-02T16:49:09.963Z,55.30
2022-10-02T16:52:11.559Z,55.20
2022-10-02T16:55:15.923Z,55.10
2022-10-02T16:58:24.362Z,55.00
2022-10-02T17:01:27.258Z,55.00
2022-10-02T17:04:28.967Z,55.00
2022-10-02T17:07:31.131Z,55.00
2022-10-02T17:10:38.610Z,55.00
2022-10-02T17:13:43.099Z,55.00
2022-10-02T17:16:40.875Z,54.70
2022-10-02T17:19:44.150Z,54.70
2022-10-02T17:22:43.977Z,54.60
2022-10-02T17:25:44.471Z,55.20
2022-10-02T17:28:44.447Z,55.90
2022-10-02T17:31:45.524Z,56.30
2022-10-02T17:34:49.822Z,55.70
2022-10-02T17:38:04.724Z,55.60
2022-10-02T17:41:09.954Z,55.40
2022-10-02T17:44:14.732Z,55.40
2022-10-02T17:47:26.388Z,55.40
2022-10-02T17:50:37.170Z,55.60
2022-10-02T17:54:00.084Z,55.40
2022-10-02T17:57:16.898Z,55.30
2022-10-02T18:00:18.538Z,55.00
2022-10-02T18:03:33.413Z,54.80
2022-10-02T18:06:35.833Z,54.60
2022-10-02T18:09:56.941Z,54.60
2022-10-02T18:13:25.835Z,54.60
2022-10-02T18:16:33.998Z,54.60
2022-10-02T18:19:31.161Z,54.50
2022-10-02T18:22:48.487Z,54.40
2022-10-02T18:25:52.944Z,54.40
2022-10-02T18:29:03.034Z,54.40
2022-10-02T18:32:28.271Z,54.40
2022-10-02T18:35:36.080Z,54.20
2022-10-02T18:38:43.676Z,54.30
2022-10-02T18:41:56.311Z,54.20
2022-10-02T18:45:00.172Z,54.20
2022-10-02T18:48:08.285Z,54.20
2022-10-02T18:51:18.457Z,54.10
2022-10-02T18:54:24.680Z,54.10
2022-10-02T18:57:34.444Z,54.00
2022-10-02T19:00:39.757Z,54.00
2022-10-02T19:03:47.722Z,53.90
2022-10-02T19:06:50.556Z,53.90
2022-10-02T19:09:44.458Z,53.90
2022-10-02T19:12:43.095Z,54.50
2022-10-02T19:15:36.621Z,53.80
2022-10-02T19:18:32.780Z,53.80
2022-10-02T19:21:25.953Z,53.80
2022-10-02T19:24:23.232Z,53.80
2022-10-02T19:27:23.121Z,53.80
2022-10-02T19:30:25.338Z,53.80
2022-10-02T19:33:23.902Z,53.80
2022-10-02T19:36:21.906Z,53.80
2022-10-02T19:39:21.644Z,53.70
2022-10-02T19:42:19.020Z,53.80
2022-10-02T19:45:25.470Z,53.70
2022-10-02T19:48:20.795Z,53.70
2022-10-02T19:51:21.541Z,53.70
2022-10-02T19:54:20.159Z,53.60
2022-10-02T19:57:18.726Z,53.60
2022-10-02T20:00:16.541Z,53.60
2022-10-02T20:03:15.834Z,53.60
2022-10-02T20:06:12.766Z,53.60
2022-10-02T20:09:14.035Z,53.60
2022-10-02T20:12:14.530Z,53.50
2022-10-02T20:15:15.755Z,53.50
2022-10-02T20:18:10.113Z,53.50
2022-10-02T20:21:10.156Z,53.50
2022-10-02T20:24:07.297Z,53.50
2022-10-02T20:27:08.665Z,53.50
2022-10-02T20:30:06.885Z,53.50
2022-10-02T20:33:07.222Z,53.40
2022-10-02T20:36:06.946Z,53.40
2022-10-02T20:39:05.452Z,53.40
2022-10-02T20:42:02.873Z,53.40
2022-10-02T20:44:56.893Z,53.40
2022-10-02T20:48:16.548Z,53.30
2022-10-02T20:51:16.126Z,53.30
2022-10-02T20:54:43.421Z,53.30
2022-10-02T20:58:05.665Z,53.30
2022-10-02T21:01:17.072Z,53.30
2022-10-02T21:04:39.278Z,53.20
2022-10-02T21:07:49.072Z,53.20
2022-10-02T21:11:14.979Z,53.20
2022-10-02T21:14:53.141Z,53.30
2022-10-02T21:18:19.748Z,53.20
2022-10-02T21:21:41.757Z,53.20
2022-10-02T21:25:05.212Z,53.20
2022-10-02T21:28:38.806Z,53.20
2022-10-02T21:31:58.409Z,53.70
2022-10-02T21:35:05.848Z,53.10
2022-10-02T21:38:27.954Z,53.00
2022-10-02T21:41:58.662Z,53.10
2022-10-02T21:45:28.786Z,53.10
2022-10-02T21:48:54.123Z,53.00
2022-10-02T21:52:19.770Z,53.00
2022-10-02T21:55:55.905Z,53.00
2022-10-02T21:59:21.061Z,53.00
2022-10-02T22:02:40.622Z,53.00
2022-10-02T22:05:54.088Z,53.00
2022-10-02T22:09:06.360Z,53.00
2022-10-02T22:12:15.863Z,53.00
2022-10-02T22:15:15.918Z,53.00
2022-10-02T22:18:16.882Z,52.90
2022-10-02T22:21:31.786Z,52.90
2022-10-02T22:24:39.041Z,52.90
2022-10-02T22:27:56.183Z,52.90
2022-10-02T22:31:14.672Z,52.90
2022-10-02T22:34:34.611Z,52.90
2022-10-02T22:37:41.611Z,52.90
2022-10-02T22:40:45.429Z,52.90
2022-10-02T22:43:50.025Z,52.90
2022-10-02T22:46:49.745Z,52.90
2022-10-02T22:49:47.320Z,52.90
2022-10-02T22:52:47.304Z,52.90
2022-10-02T22:55:48.421Z,52.90
2022-10-02T22:58:48.814Z,52.90
2022-10-02T23:01:47.593Z,52.90
2022-10-02T23:04:49.086Z,52.90
2022-10-02T23:07:49.130Z,52.90
2022-10-02T23:10:46.610Z,52.80
2022-10-02T23:13:46.265Z,52.90
2022-10-02T23:16:48.035Z,52.80
2022-10-02T23:19:44.880Z,52.80
2022-10-02T23:22:43.800Z,52.80
2022-10-02T23:25:44.699Z,52.80
2022-10-02T23:28:47.139Z,52.80
2022-10-02T23:31:49.003Z,52.80
2022-10-02T23:34:50.547Z,52.80
2022-10-02T23:37:51.623Z,52.80
2022-10-02T23:41:18.016Z,52.80
2022-10-02T23:44:23.520Z,52.80
2022-10-02T23:47:26.012Z,52.80
2022-10-02T23:50:23.758Z,52.80
2022-10-02T23:53:40.082Z,52.80
2022-10-02T23:56:48.546Z,52.80
